עמוד ראשי
METAR-TAF:

METAR-TAF

שדות תעופה :

Brown Field Municipal Airport

סן דייגו, קליפורניה, ארצות הברית

קו רוחב: 32-34-31N, קו אורך: 116-59-35W, גובה: 164מטר

תצפית מזג אוויר נוכחית

הדו"ח נערך לפני 43דקות, בשעה 01:53 UTC
רוח 7קשר מכיוון מערב/צפון-מערב
טמפרטורת 18 צלסיוס
לחות 73%
לחץ 1015 hPa
ראות: 16.1קילומטר
שמיים נקיים

METAR: KSDM 140153Z 29007KT 10SM CLR 18/13 A2997 RMK AO2 SLP147 T01830128 $

זמן: 19:36 (02:36 UTC)


TAF: חסר

תצפיות ותחזיות מזג אוויר לגבי יותר מ- 4,000 שדות תעופה ברחבי העולם. דוחות METAR ו- TAF.

התחנות הזמינות מסומנות בנקודות צהובות ואדומות על גבי המפה.

העבר את העכבר לנקודה הצבעונית על מנת לראות את שם התחנה.

לאחר מכן, לחץ כדי לראות את תוכן ואת תחזיות מזג האוויר.

כדי לשנות את המפה: לחץ על הכפתורים הירוקים עם הפלוס השחור כדי להתקרב; על הכפתור הירוק עם המקף כדי להתרחק; או בחיצים הירוקים למפות סמוכות.


METAR-TAF: